1965 Severe Tropical Cyclone RUTH (1965083S09130)


IBTrACS version v04r00. Visit IBTrACS website for data access.
Please direct all questions to the IBTrACS Q and A forum

Storm track - Intensity - Wind Radii - Intensity Data - Source Data - All data

Summary Information

Storm ID 1965083S09130
Start Mar 23 23Z
Max Intensity 65 kt (Mar 26 12Z), 972 mb (Mar 27 01Z)
End Apr 3 23Z
ATCF IDs ,SH381965
Track status Best track data.

Storm track plot

Map of storm track

Intensity plots

Map of storm track

Radial wind information

No radial wind information for this storm


Position and Intensity Table

BASIN ISO_TIME_________ NATURE LAT LON WMO PRES BOM PRES DS824 WIND NEUMANN WIND NEUMANN PRES
degrees north degrees east mb mb kts kts mb
SI 1965-03-23 23:00:00 NR -8.70 130.00
SI 23:30:00 NR -9.15 129.99 1002 1002
SI 1965-03-24 00:00:00 TS -9.15 129.98 25
SI 03:00:00 TS -9.27 129.83 25
SI 06:00:00 TS -9.45 129.70 25 25 1001
SI 09:00:00 TS -9.55 129.59 25 25 1001
SI 11:00:00 TS -9.64 129.51 25 25 1001
SI 12:00:00 TS -9.69 129.47 25 25 1001
SI 15:00:00 TS -9.78 129.33 25 27 1000
SI 18:00:00 TS -9.88 129.17 25 30 1000
SI 21:00:00 TS -9.98 128.98 30 30 1000
SI 23:00:00 TS -10.02 128.86 33 30 1000
SI 23:30:00 TS -10.01 128.83 1000 1000 34 30 1000
SI 1965-03-25 00:00:00 TS -10.00 128.80 35 30 1000
SI 03:00:00 TS -10.10 128.60 30 30 999
SI 06:00:00 TS -10.23 128.39 25 30 999
SI 09:00:00 TS -10.34 128.17 25 32 998
SI 11:00:00 TS -10.42 128.01 25 34 998
SI 12:00:00 TS -10.46 127.93 25 35 998
SI 15:00:00 TS -10.63 127.70 25 35 997
SI 18:00:00 TS -10.79 127.46 25 35 997
SI 21:00:00 TS -10.92 127.20 25 35 996
SI 23:00:00 TS -11.00 127.03 25 35 996
SI 23:30:00 TS -11.02 126.99 996 996 25 35 996
SI 1965-03-26 00:00:00 TS -11.04 126.94 996 25 35 996
SI 03:00:00 TS -11.17 126.69 996 30 35 996
SI 06:00:00 TS -11.30 126.43 996 35 35 996
SI 07:00:00 TS -11.34 126.35 996 996 39 35 996
SI 09:00:00 TS -11.40 126.17 50 35 996
SI 11:00:00 TS -11.47 126.00 60 35 996
SI 12:00:00 TS -11.51 125.92 65 35 996
SI 15:00:00 TS -11.62 125.67 50 35 996
SI 18:00:00 TS -11.78 125.43 35 35 996
SI 21:00:00 TS -11.98 125.15 35 35 996
SI 23:00:00 TS -12.15 124.98 35 35 996
SI 1965-03-27 00:00:00 TS -12.28 124.91 35 35 996
SI 01:00:00 TS -12.41 124.85 972 972 35 35 996
SI 03:00:00 TS -12.64 124.77 35 35 996
SI 06:00:00 TS -12.99 124.69 35 35 996
SI 09:00:00 TS -13.32 124.63 35 35 996
SI 11:00:00 TS -13.55 124.62 35 35 996
SI 12:00:00 TS -13.67 124.62 35 35 996
SI 15:00:00 TS -14.04 124.67 30 35 996
SI 18:00:00 TS -14.41 124.73 25 35 997
SI 21:00:00 TS -14.75 124.75 25 35 997
SI 22:30:00 TS -14.91 124.74 972 972 25 35 997
SI 23:00:00 TS -14.96 124.73 977 25 35 997
SI 1965-03-28 00:00:00 TS -15.06 124.71 987 25 35 998
SI 01:00:00 TS -15.15 124.66 998 998 25 35 998
SI 03:00:00 TS -15.30 124.52 25 35 998
SI 06:00:00 TS -15.46 124.21 25 35 998
SI 07:00:00 TS -15.50 124.10 25 35 998
SI 09:00:00 TS -15.58 123.87 25 35 998
SI 11:00:00 TS -15.65 123.64 25 35 998
SI 12:00:00 TS -15.69 123.52 25 35 998
SI 15:00:00 TS -15.81 123.14 25 35 998
SI 16:00:00 TS -15.84 123.00 992 992 25 35 998
SI 18:00:00 TS -15.91 122.71 993 25 35 998
SI 21:00:00 TS -15.98 122.26 995 30 35 998
SI 22:30:00 TS -16.01 122.03 996 32 35 998
SI 23:00:00 TS -16.02 121.96 996 33 35 998
SI 1965-03-29 00:00:00 TS -16.03 121.82 997 35 35 998
SI 01:00:00 TS -16.04 121.67 998 998 33 35 998
SI 03:00:00 TS -16.06 121.37 30 35 998
SI 06:00:00 TS -16.07 120.89 25 35 998
SI 09:00:00 TS -16.10 120.39 25 35 998
SI 11:00:00 TS -16.12 120.04 25 35 998
SI 12:00:00 TS -16.13 119.87 25 35 998
SI 15:00:00 TS -16.18 119.33 25 32 998
SI 18:00:00 TS -16.23 118.75 25 30 999
SI 21:00:00 TS -16.29 118.13 25 30 999
SI 23:00:00 TS -16.34 117.66 25 30 999
SI 1965-03-30 00:00:00 TS -16.36 117.40 25 30 999
SI 01:00:00 TS -16.39 117.12 1000 1000 25 30 999
SI 03:00:00 TS -16.45 116.53 25 30 999
SI 06:00:00 TS -16.56 115.57 25 30 1000
SI 09:00:00 TS -16.67 114.60 25 30 1000
SI 11:00:00 TS -16.74 113.94 25 30 1000
SI 12:00:00 TS -16.77 113.62 25 30 1000
SI 15:00:00 TS -16.87 112.66 25 30 1000
SI 18:00:00 TS -16.97 111.73 25 30 1000
SI 21:00:00 TS -17.03 110.81 25 30 1000
SI 23:00:00 TS -17.08 110.24 25 30 1000
SI 1965-03-31 00:00:00 TS -17.09 109.96 25 30 1000
SI 01:00:00 TS -17.11 109.70 1000 1000 25 30 1000
SI 03:00:00 TS -17.22 109.25 25 30 1000
SI 06:00:00 TS -17.40 108.61 25 30 1000
SI 09:00:00 TS -17.58 107.97 30 27 1000
SI 11:00:00 TS -17.69 107.54 33 25 1000
SI 12:00:00 TS -17.73 107.32 35 25 1001
SI 15:00:00 TS -17.82 106.62 30 25 1001
SI 18:00:00 TS -17.87 105.92 25 25 1002
SI 21:00:00 TS -17.91 105.19 25 25 1002
SI 23:00:00 TS -17.95 104.68 25 25 1002
SI 1965-04-01 00:00:00 TS -17.97 104.37 25 25 1003
SI 01:00:00 TS -18.01 104.04 1004 1004 25
SI 03:00:00 TS -18.06 103.58 25
SI 06:00:00 TS -18.10 103.00 25
SI 09:00:00 TS -18.11 102.44 25
SI 11:00:00 TS -18.10 102.08 25
SI 12:00:00 TS -18.10 101.91 25
SI 15:00:00 TS -18.11 101.42 25
SI 18:00:00 TS -18.10 100.92 25
SI 21:00:00 TS -18.07 100.41 25
SI 23:00:00 TS -18.02 100.02 25
SI 1965-04-02 00:00:00 TS -17.99 99.79 25
SI 03:00:00 TS -17.87 99.00 25
SI 06:00:00 TS -17.69 98.10 25
SI 09:00:00 TS -17.48 97.17 25
SI 11:00:00 TS -17.30 96.53 25
SI 12:00:00 TS -17.20 96.19 25
SI 15:00:00 TS -16.85 95.13 25
SI 18:00:00 TS -16.49 94.09 25
SI 21:00:00 TS -16.18 93.12 25
SI 23:00:00 TS -16.04 92.54 25
SI 1965-04-03 00:00:00 TS -15.99 92.29 25
SI 03:00:00 TS -15.93 91.63 25
SI 06:00:00 TS -15.99 91.09 25
SI 09:00:00 TS -16.12 90.58 25
SI 11:00:00 TS -16.23 90.27 25
SI 12:00:00 TS -16.29 90.12 25
SI 15:00:00 TS -16.45 89.67 25
SI 18:00:00 TS -16.62 89.23 25
SI 21:00:00 NR -16.86 88.80
SI 23:00:00 NR -17.00 88.50

Source Information

Agency Information
USA bsh381965.txt
TOKYO
CMA
HKO
NEWDELHI
REUNION
BOM IDCKMSTM0S.csv:Line=4265:RUTH
NADI
WELLINGTON
DS824 s_hem.dat:974:39S
TD9636 cons_worldwide_trop_cyclone_18710101-19891231-006:Line=7285
TD9635
NEUMANN tracks.sh:Storm=146:RUTH:BSH3865:BM346
MLC

All available IBTrACS Data

SEASON BASIN SUBBASIN ISO_TIME_________ NATURE LAT LON WMO PRES WMO AGENCY DIST2LAND LANDFALL IFLAG USA AGENCY USA ATCF_ID USA LAT USA LON USA SSHS BOM LAT BOM LON BOM PRES BOM PRES_METHOD DS824 LAT DS824 LON DS824 STAGE DS824 WIND TD9636 LAT TD9636 LON TD9636 STAGE NEUMANN LAT NEUMANN LON NEUMANN CLASS NEUMANN WIND NEUMANN PRES STORM SPEED STORM DIR
Year degrees north degrees east mb km km degrees north degrees east 1 degrees north degrees east mb degrees north degrees east kts degrees north degrees east degrees north degrees east kts mb kts degrees
1965 SI WA 1965-03-23 23:00:00 NR -8.70 130.00 144 144 __________O___ -1 -8.70 130.00 7 54 0
1965 SI WA 23:30:00 NR -9.15 129.99 1002 bom 172 172 ______O___P___ -1 -10.00 130.00 1002 -8.72 129.98 7 27 0
1965 SI WA 1965-03-24 00:00:00 TS -9.15 129.98 180 180 O_____P__OP___ jtwc_sh SH381965 -8.70 130.00 -1 -10.01 129.97 -8.70 130.00 TC 25 -8.74 129.96 7 3 229
1965 SI WA 03:00:00 TS -9.27 129.83 204 204 P_____P__PP___ SH381965 -8.86 129.84 -1 -10.10 129.81 -8.86 129.84 TC 25 -8.88 129.84 7 4 223
1965 SI WA 06:00:00 TS -9.45 129.70 219 219 O_____P__OP_O_ jtwc_sh SH381965 -9.00 129.70 -1 -10.19 129.64 -9.00 129.70 TC 25 -9.00 129.71 7 -10.20 129.90 TC 25 1001 4 222
1965 SI WA 09:00:00 TS -9.55 129.59 212 212 P_____P__PP_P_ SH381965 -9.11 129.60 -1 -10.27 129.48 -9.11 129.60 TC 25 -9.13 129.59 7 -10.24 129.75 TC 25 1001 3 225
1965 SI WA 11:00:00 TS -9.64 129.51 215 205 P_____P__PO_P_ SH381965 -9.17 129.54 -1 -10.33 129.37 -9.17 129.54 TC 25 -9.20 129.50 1 -10.28 129.65 TC 25 1001 4 219
1965 SI WA 12:00:00 TS -9.69 129.47 205 199 O_____P__OP_O_ jtwc_sh SH381965 -9.20 129.50 -1 -10.36 129.32 -9.20 129.50 TC 25 -9.24 129.46 1 -10.30 129.60 TC 25 1001 4 231
1965 SI WA 15:00:00 TS -9.78 129.33 204 200 P_____P__PP_P_ SH381965 -9.30 129.36 -1 -10.45 129.16 -9.30 129.36 TC 25 -9.34 129.32 1 -10.39 129.46 TC 27 1000 4 237
1965 SI WA 18:00:00 TS -9.88 129.17 200 200 O_____P__OP_O_ jtwc_sh SH381965 -9.40 129.20 -1 -10.53 128.99 -9.40 129.20 TC 25 -9.43 129.18 1 -10.50 129.30 TC 30 1000 4 240
1965 SI WA 21:00:00 TS -9.98 128.98 204 204 P_____P__PP_P_ SH381965 -9.49 129.01 -1 -10.62 128.83 -9.49 129.01 TC 30 -9.53 129.02 1 -10.60 129.11 TC 30 1000 4 245
1965 SI WA 23:00:00 TS -10.02 128.86 211 211 P_____P__PO_P_ SH381965 -9.56 128.87 -1 -10.68 128.73 -9.56 128.87 TC 33 -9.60 128.90 2 -10.67 128.97 TC 30 1000 4 256
1965 SI WA 23:30:00 TS -10.01 128.83 1000 bom 219 219 P_____O__PP_P_ SH381965 -9.58 128.83 -1 -10.70 128.70 1000 -9.58 128.83 TC 34 -9.62 128.87 2 -10.68 128.94 TC 30 1000 4 286
1965 SI WA 1965-03-25 00:00:00 TS -10.00 128.80 219 219 O_____P__OP_O_ jtwc_sh SH381965 -9.60 128.80 -1 -10.72 128.67 -9.60 128.80 TC 35 -9.64 128.84 2 -10.70 128.90 TC 30 1000 4 248
1965 SI WA 03:00:00 TS -10.10 128.60 226 226 P_____P__PP_P_ SH381965 -9.75 128.61 -1 -10.81 128.51 -9.75 128.61 TC 30 -9.75 128.63 2 -10.79 128.65 TC 30 999 5 240
1965 SI WA 06:00:00 TS -10.23 128.39 227 222 O_____P__OP_O_ jtwc_sh SH381965 -9.90 128.40 -1 -10.91 128.35 -9.90 128.40 TC 25 -9.88 128.40 2 -10.90 128.40 TC 30 999 5 241
1965 SI WA 09:00:00 TS -10.34 128.17 222 219 P_____P__PP_P_ SH381965 -9.99 128.16 -1 -11.01 128.17 -9.99 128.16 TC 25 -10.01 128.16 2 -11.05 128.19 TC 32 998 5 243
1965 SI WA 11:00:00 TS -10.42 128.01 219 219 P_____P__PO_P_ SH381965 -10.06 127.99 -1 -11.09 128.05 -10.06 127.99 TC 25 -10.10 128.00 1 -11.15 128.06 TC 34 998 5 242
1965 SI WA 12:00:00 TS -10.46 127.93 224 219 O_____P__OP_O_ jtwc_sh SH381965 -10.10 127.90 -1 -11.13 127.98 -10.10 127.90 TC 25 -10.15 127.92 1 -11.20 128.00 TC 35 998 6 236
1965 SI WA 15:00:00 TS -10.63 127.70 222 219 P_____P__PP_P_ SH381965 -10.30 127.65 -1 -11.26 127.77 -10.30 127.65 TC 25 -10.31 127.67 1 -11.30 127.81 TC 35 997 6 235
1965 SI WA 18:00:00 TS -10.79 127.46 229 224 O_____P__OP_O_ jtwc_sh SH381965 -10.50 127.40 -1 -11.40 127.53 -10.50 127.40 TC 25 -10.47 127.42 1 -11.40 127.60 TC 35 997 6 239
1965 SI WA 21:00:00 TS -10.92 127.20 226 226 P_____P__PP_P_ SH381965 -10.61 127.14 -1 -11.55 127.26 -10.61 127.14 TC 25 -10.61 127.16 1 -11.53 127.37 TC 35 996 6 243
1965 SI WA 23:00:00 TS -11.00 127.03 230 230 P_____P__PO_P_ SH381965 -10.67 126.98 -1 -11.67 127.05 -10.67 126.98 TC 25 -10.70 127.00 1 -11.64 127.20 TC 35 996 6 245
1965 SI WA 23:30:00 TS -11.02 126.99 996 bom 230 230 P_____O__PP_P_ SH381965 -10.69 126.94 -1 -11.70 127.00 996 -10.69 126.94 TC 25 -10.72 126.96 1 -11.67 127.15 TC 35 996 6 246
1965 SI WA 1965-03-26 00:00:00 TS -11.04 126.94 228 228 O_____P__OP_O_ jtwc_sh SH381965 -10.70 126.90 -1 -11.73 126.94 996 -10.70 126.90 TC 25 -10.73 126.92 1 -11.70 127.10 TC 35 996 6 243
1965 SI WA 03:00:00 TS -11.17 126.69 247 242 P_____P__PP_P_ SH381965 -10.81 126.70 -1 -11.93 126.58 996 -10.81 126.70 TC 30 -10.81 126.70 1 -11.89 126.75 TC 35 996 6 243
1965 SI WA 06:00:00 TS -11.30 126.43 242 242 O_____P__OP_O_ jtwc_sh SH381965 -10.90 126.50 -1 -12.13 126.21 996 -10.90 126.50 TC 35 -10.87 126.48 1 -12.10 126.40 TC 35 996 6 244
1965 SI WA 07:00:00 TS -11.34 126.35 996 bom 234 234 P_____O__PP_P_ SH381965 -10.92 126.42 -1 -12.20 126.10 996 -10.92 126.42 TC 39 -10.89 126.41 1 -12.17 126.30 TC 35 996 5 248
1965 SI WA 09:00:00 TS -11.40 126.17 234 226 P_____P__PP_P_ SH381965 -10.95 126.26 -1 -12.33 125.89 -10.95 126.26 TC 50 -10.94 126.26 1 -12.30 126.13 TC 35 996 5 248
1965 SI WA 11:00:00 TS -11.47 126.00 226 219 P_____P__PO_P_ SH381965 -10.98 126.09 -1 -12.46 125.69 -10.98 126.09 TC 60 -11.00 126.10 4 -12.43 125.97 TC 35 996 5 247
1965 SI WA 12:00:00 TS -11.51 125.92 219 211 O_____P__OP_O_ jtwc_sh SH381965 -11.00 126.00 -1 -12.52 125.60 -11.00 126.00 TC 65 -11.03 126.01 4 -12.50 125.90 TC 35 996 5 245
1965 SI WA 15:00:00 TS -11.62 125.67 213 206 P_____P__PP_P_ SH381965 -11.07 125.76 -1 -12.71 125.35 -11.07 125.76 TC 50 -11.13 125.72 4 -12.70 125.70 TC 35 996 6 241
1965 SI WA 18:00:00 TS -11.78 125.43 214 209 O_____P__OP_O_ jtwc_sh SH381965 -11.20 125.50 -1 -12.91 125.14 -11.20 125.50 TC 35 -11.26 125.42 4 -12.90 125.50 TC 35 996 6 235
1965 SI WA 21:00:00 TS -11.98 125.15 226 222 P_____P__PP_P_ SH381965 -11.41 125.19 -1 -13.11 124.97 -11.41 125.19 TC 35 -11.44 125.15 4 -13.09 125.23 TC 35 996 7 230
1965 SI WA 23:00:00 TS -12.15 124.98 229 229 P_____P__PO_P_ SH381965 -11.60 124.99 -1 -13.25 124.87 -11.60 124.99 TC 35 -11.60 125.00 2 -13.23 125.06 TC 35 996 8 218
1965 SI WA 1965-03-27 00:00:00 TS -12.28 124.91 230 221 O_____P__OP_O_ jtwc_sh SH381965 -11.70 124.90 -1 -13.33 124.84 -11.70 124.90 TC 35 -11.69 124.93 2 -13.30 125.00 TC 35 996 9 205
1965 SI WA 01:00:00 TS -12.41 124.85 972 bom 221 209 P_____O__PP_P_ SH381965 -11.80 124.83 -1 -13.40 124.80 972 -11.80 124.83 TC 35 -11.80 124.86 2 -13.38 124.96 TC 35 996 8 201
1965 SI WA 03:00:00 TS -12.64 124.77 209 175 P_____P__PP_P_ SH381965 -12.03 124.71 -1 -13.54 124.74 -12.03 124.71 TC 35 -12.02 124.75 2 -13.54 124.91 TC 35 996 7 196
1965 SI WA 06:00:00 TS -12.99 124.69 175 155 O_____P__OP_O_ jtwc_sh SH381965 -12.40 124.60 -1 -13.76 124.69 -12.40 124.60 TC 35 -12.41 124.61 2 -13.80 124.90 TC 35 996 7 191
1965 SI WA 09:00:00 TS -13.32 124.63 155 139 P_____P__PP_P_ SH381965 -12.78 124.51 -1 -14.00 124.69 -12.78 124.51 TC 35 -12.82 124.53 2 -14.05 124.89 TC 35 996 7 187
1965 SI WA 11:00:00 TS -13.55 124.62 129 119 P_____P__PO_P_ SH381965 -13.06 124.49 -1 -14.16 124.69 -13.06 124.49 TC 35 -13.10 124.50 2 -14.22 124.90 TC 35 996 7 182
1965 SI WA 12:00:00 TS -13.67 124.62 119 86 O_____P__OP_O_ jtwc_sh SH381965 -13.20 124.50 -1 -14.25 124.70 -13.20 124.50 TC 35 -13.24 124.51 2 -14.30 124.90 TC 35 996 7 174
1965 SI WA 15:00:00 TS -14.04 124.67 86 58 P_____P__PP_P_ SH381965 -13.66 124.59 -1 -14.52 124.73 -13.66 124.59 TC 30 -13.68 124.58 2 -14.54 124.90 TC 35 996 7 172
1965 SI WA 18:00:00 TS -14.41 124.73 58 43 O_____P__OP_O_ jtwc_sh SH381965 -14.10 124.70 -1 -14.81 124.77 -14.10 124.70 TC 25 -14.11 124.67 2 -14.80 124.90 TC 35 997 7 174
1965 SI WA 21:00:00 TS -14.75 124.75 39 35 P_____P__PP_P_ SH381965 -14.49 124.75 -1 -15.13 124.79 -14.49 124.75 TC 25 -14.49 124.72 2 -15.11 124.94 TC 35 997 7 177
1965 SI WA 22:30:00 TS -14.91 124.74 972 bom 35 35 P_____O__PP_P_ SH381965 -14.65 124.74 -1 -15.30 124.80 972 -14.65 124.74 TC 25 -14.65 124.71 2 -15.26 124.94 TC 35 997 6 0
1965 SI WA 23:00:00 TS -14.96 124.73 24 24 P_____P__PO_P_ SH381965 -14.71 124.73 -1 -15.36 124.81 977 -14.71 124.73 TC 25 -14.70 124.70 1 -15.31 124.93 TC 35 997 6 197
1965 SI WA 1965-03-28 00:00:00 TS -15.06 124.71 15 15 O_____P__OP_O_ jtwc_sh SH381965 -14.80 124.70 -1 -15.49 124.82 987 -14.80 124.70 TC 25 -14.79 124.66 1 -15.40 124.90 TC 35 998 6 201
1965 SI WA 01:00:00 TS -15.15 124.66 998 bom 15 10 P_____O__PP_P_ SH381965 -14.89 124.65 -1 -15.60 124.80 998 -14.89 124.65 TC 25 -14.87 124.61 1 -15.48 124.85 TC 35 998 6 217
1965 SI WA 03:00:00 TS -15.30 124.52 24 22 P_____P__PP_P_ SH381965 -15.04 124.51 -1 -15.75 124.62 -15.04 124.51 TC 25 -15.01 124.48 1 -15.62 124.70 TC 35 998 6 235
1965 SI WA 06:00:00 TS -15.46 124.21 24 24 O_____P__OP_O_ jtwc_sh SH381965 -15.20 124.20 -1 -15.86 124.15 -15.20 124.20 TC 25 -15.16 124.21 1 -15.80 124.40 TC 35 998 7 243
1965 SI WA 07:00:00 TS -15.50 124.10 bom 34 34 P_____O__PP_P_ SH381965 -15.23 124.09 -1 -15.90 124.00 -15.23 124.09 TC 25 -15.19 124.10 1 -15.87 124.31 TC 35 998 7 249
1965 SI WA 09:00:00 TS -15.58 123.87 53 53 P_____P__PP_P_ SH381965 -15.27 123.83 -1 -16.02 123.83 -15.27 123.83 TC 25 -15.25 123.86 1 -16.00 124.11 TC 35 998 7 251
1965 SI WA 11:00:00 TS -15.65 123.64 56 56 P_____P__PO_P_ SH381965 -15.29 123.55 -1 -16.16 123.70 -15.29 123.55 TC 25 -15.30 123.60 1 -16.13 123.90 TC 35 998 7 253
1965 SI WA 12:00:00 TS -15.69 123.52 59 59 O_____P__OP_O_ jtwc_sh SH381965 -15.30 123.40 -1 -16.22 123.63 -15.30 123.40 TC 25 -15.33 123.47 1 -16.20 123.80 TC 35 998 8 253
1965 SI WA 15:00:00 TS -15.81 123.14 77 77 P_____P__PP_P_ SH381965 -15.36 122.96 -1 -16.43 123.40 -15.36 122.96 TC 25 -15.38 123.02 1 -16.41 123.51 TC 35 998 8 253
1965 SI WA 16:00:00 TS -15.84 123.00 992 bom 78 67 P_____O__PP_P_ SH381965 -15.37 122.81 -1 -16.50 123.30 992 4 -15.37 122.81 TC 25 -15.40 122.86 1 -16.47 123.42 TC 35 998 9 256
1965 SI WA 18:00:00 TS -15.91 122.71 70 70 O_____P__OP_O_ jtwc_sh SH381965 -15.40 122.50 -1 -16.64 122.98 993 -15.40 122.50 TC 25 -15.41 122.53 1 -16.60 123.20 TC 35 998 9 259
1965 SI WA 21:00:00 TS -15.98 122.26 85 85 P_____P__PP_P_ SH381965 -15.41 122.05 -1 -16.82 122.49 995 -15.41 122.05 TC 30 -15.41 122.03 1 -16.76 122.84 TC 35 998 9 261
1965 SI WA 22:30:00 TS -16.01 122.03 bom 108 108 P_____I__PP_P_ SH381965 -15.41 121.83 -1 -16.90 122.30 996 -15.41 121.83 TC 32 -15.40 121.78 1 -16.84 122.63 TC 35 998 9 263
1965 SI WA 23:00:00 TS -16.02 121.96 108 108 P_____P__PO_P_ SH381965 -15.41 121.75 -1 -16.92 122.26 996 -15.41 121.75 TC 33 -15.40 121.70 2 -16.86 122.56 TC 35 998 8 264
1965 SI WA 1965-03-29 00:00:00 TS -16.03 121.82 123 123 O_____P__OP_O_ jtwc_sh SH381965 -15.40 121.60 -1 -16.96 122.18 997 -15.40 121.60 TC 35 -15.39 121.55 2 -16.90 122.40 TC 35 998 8 265
1965 SI WA 01:00:00 TS -16.04 121.67 998 bom 132 132 P_____O__PP_P_ SH381965 -15.39 121.45 -1 -17.00 122.10 998 -15.39 121.45 TC 33 -15.39 121.41 2 -16.94 122.24 TC 35 998 9 267
1965 SI WA 03:00:00 TS -16.06 121.37 147 147 P_____P__PP_P_ SH381965 -15.35 121.14 -1 -17.07 121.87 -15.35 121.14 TC 30 -15.37 121.13 2 -17.01 121.89 TC 35 998 9 268
1965 SI WA 06:00:00 TS -16.07 120.89 186 186 O_____P__OP_O_ jtwc_sh SH381965 -15.30 120.70 -1 -17.17 121.41 -15.30 120.70 TC 25 -15.33 120.71 2 -17.10 121.30 TC 35 998 9 268
1965 SI WA 09:00:00 TS -16.10 120.39 231 231 P_____P__PP_P_ SH381965 -15.28 120.30 -1 -17.25 120.82 -15.28 120.30 TC 25 -15.30 120.29 2 -17.16 120.62 TC 35 998 10 267
1965 SI WA 11:00:00 TS -16.12 120.04 269 269 P_____P__PO_P_ SH381965 -15.29 120.04 -1 -17.29 120.37 -15.29 120.04 TC 25 -15.30 120.00 1 -17.19 120.14 TC 35 998 10 266
1965 SI WA 12:00:00 TS -16.13 119.87 279 279 O_____P__OP_O_ jtwc_sh SH381965 -15.30 119.90 -1 -17.31 120.13 -15.30 119.90 TC 25 -15.30 119.88 1 -17.20 119.90 TC 35 998 10 265
1965 SI WA 15:00:00 TS -16.18 119.33 332 332 P_____P__PP_P_ SH381965 -15.34 119.48 -1 -17.37 119.36 -15.34 119.48 TC 25 -15.32 119.51 1 -17.24 119.20 TC 32 998 11 265
1965 SI WA 18:00:00 TS -16.23 118.75 382 382 O_____P__OP_O_ jtwc_sh SH381965 -15.40 119.00 -1 -17.41 118.53 -15.40 119.00 TC 25 -15.36 119.09 1 -17.30 118.50 TC 30 999 12 264
1965 SI WA 21:00:00 TS -16.29 118.13 438 438 P_____P__PP_P_ SH381965 -15.43 118.48 -1 -17.45 117.66 -15.43 118.48 TC 25 -15.43 118.55 1 -17.41 117.82 TC 30 999 13 265
1965 SI WA 23:00:00 TS -16.34 117.66 450 447 P_____P__PO_P_ SH381965 -15.47 118.05 -1 -17.48 117.08 -15.47 118.05 TC 25 -15.50 118.10 1 -17.48 117.34 TC 30 999 14 264
1965 SI WA 1965-03-30 00:00:00 TS -16.36 117.40 451 451 O_____P__OP_O_ jtwc_sh SH381965 -15.50 117.80 -1 -17.49 116.79 -15.50 117.80 TC 25 -15.54 117.82 1 -17.50 117.10 TC 30 999 16 264
1965 SI WA 01:00:00 TS -16.39 117.12 1000 bom 459 459 P_____O__PP_P_ SH381965 -15.54 117.52 -1 -17.50 116.50 1000 -15.54 117.52 TC 25 -15.58 117.52 1 -17.51 116.84 TC 30 999 17 264
1965 SI WA 03:00:00 TS -16.45 116.53 459 459 P_____P__PP_P_ SH381965 -15.64 116.88 -1 -17.54 115.97 -15.64 116.88 TC 25 -15.68 116.87 1 -17.51 116.31 TC 30 999 18 263
1965 SI WA 06:00:00 TS -16.56 115.57 462 462 O_____P__OP_O_ jtwc_sh SH381965 -15.80 115.80 -1 -17.59 115.16 -15.80 115.80 TC 25 -15.83 115.78 1 -17.50 115.50 TC 30 1000 19 263
1965 SI WA 09:00:00 TS -16.67 114.60 489 489 P_____P__PP_P_ SH381965 -15.95 114.71 -1 -17.63 114.32 -15.95 114.71 TC 25 -16.00 114.64 1 -17.54 114.70 TC 30 1000 19 264
1965 SI WA 11:00:00 TS -16.74 113.94 526 523 P_____P__PO_P_ SH381965 -16.05 113.97 -1 -17.66 113.76 -16.05 113.97 TC 25 -16.10 113.90 1 -17.58 114.17 TC 30 1000 19 264
1965 SI WA 12:00:00 TS -16.77 113.62 534 534 O_____P__OP_O_ jtwc_sh SH381965 -16.10 113.60 -1 -17.68 113.49 -16.10 113.60 TC 25 -16.14 113.55 1 -17.60 113.90 TC 30 1000 19 264
1965 SI WA 15:00:00 TS -16.87 112.66 575 575 P_____P__PP_P_ SH381965 -16.25 112.52 -1 -17.72 112.65 -16.25 112.52 TC 25 -16.25 112.51 1 -17.65 113.11 TC 30 1000 18 264
1965 SI WA 18:00:00 TS -16.97 111.73 598 598 O_____P__OP_O_ jtwc_sh SH381965 -16.40 111.50 -1 -17.75 111.82 -16.40 111.50 TC 25 -16.36 111.51 1 -17.70 112.30 TC 30 1000 18 265
1965 SI WA 21:00:00 TS -17.03 110.81 642 642 P_____P__PP_P_ SH381965 -16.53 110.54 -1 -17.77 111.02 -16.53 110.54 TC 25 -16.49 110.57 1 -17.76 111.43 TC 30 1000 17 266
1965 SI WA 23:00:00 TS -17.08 110.24 668 668 P_____P__PO_P_ SH381965 -16.64 109.96 -1 -17.79 110.50 -16.64 109.96 TC 25 -16.60 110.00 1 -17.79 110.86 TC 30 1000 16 266
1965 SI WA 1965-03-31 00:00:00 TS -17.09 109.96 681 681 O_____P__OP_O_ jtwc_sh SH381965 -16.70 109.70 -1 -17.79 110.25 -16.70 109.70 TC 25 -16.67 109.74 1 -17.80 110.60 TC 30 1000 15 266
1965 SI WA 01:00:00 TS -17.11 109.70 1000 bom 700 700 P_____O__PP_P_ SH381965 -16.77 109.45 -1 -17.80 110.00 1000 -16.77 109.45 TC 25 -16.75 109.49 1 -17.81 110.36 TC 30 1000 14 259
1965 SI WA 03:00:00 TS -17.22 109.25 727 726 P_____P__PP_P_ SH381965 -16.93 109.01 -1 -17.81 109.52 -16.93 109.01 TC 25 -16.92 109.02 1 -17.81 109.92 TC 30 1000 13 254
1965 SI WA 06:00:00 TS -17.40 108.61 756 756 O_____P__OP_O_ jtwc_sh SH381965 -17.20 108.40 -1 -17.82 108.82 -17.20 108.40 TC 25 -17.19 108.36 1 -17.80 109.30 TC 30 1000 13 254
1965 SI WA 09:00:00 TS -17.58 107.97 790 790 P_____P__PP_P_ SH381965 -17.47 107.77 -1 -17.82 108.16 -17.47 107.77 TC 30 -17.45 107.73 1 -17.80 108.64 TC 27 1000 13 254
1965 SI WA 11:00:00 TS -17.69 107.54 826 826 P_____P__PO_P_ SH381965 -17.63 107.33 -1 -17.83 107.74 -17.63 107.33 TC 33 -17.60 107.30 2 -17.80 108.21 TC 25 1000 13 257
1965 SI WA 12:00:00 TS -17.73 107.32 843 843 O_____P__OP_O_ jtwc_sh SH381965 -17.70 107.10 -1 -17.83 107.53 -17.70 107.10 TC 35 -17.66 107.06 2 -17.80 108.00 TC 25 1001 13 262
1965 SI WA 15:00:00 TS -17.82 106.62 899 899 P_____P__PP_P_ SH381965 -17.83 106.36 -1 -17.82 106.93 -17.83 106.36 TC 30 -17.80 106.32 2 -17.80 107.40 TC 25 1001 13 264
1965 SI WA 18:00:00 TS -17.87 105.92 957 957 O_____P__OP_O_ jtwc_sh SH381965 -17.90 105.60 -1 -17.82 106.34 -17.90 105.60 TC 25 -17.90 105.57 2 -17.80 106.80 TC 25 1002 14 266
1965 SI WA 21:00:00 TS -17.91 105.19 1021 1021 P_____P__PP_P_ SH381965 -17.96 104.88 -1 -17.81 105.76 -17.96 104.88 TC 25 -17.97 104.85 2 -17.80 106.16 TC 25 1002 14 266
1965 SI WA 23:00:00 TS -17.95 104.68 1066 1066 P_____P__PO_P_ SH381965 -17.99 104.42 -1 -17.81 105.38 -17.99 104.42 TC 25 -18.00 104.40 1 -17.80 105.72 TC 25 1002 16 266
1965 SI WA 1965-04-01 00:00:00 TS -17.97 104.37 1088 1088 O_____P__OP_O_ jtwc_sh SH381965 -18.00 104.20 -1 -17.80 105.19 -18.00 104.20 TC 25 -18.02 104.19 1 -17.80 105.50 TC 25 1003 18 264
1965 SI WA 01:00:00 TS -18.01 104.04 1004 bom 1125 1125 P_____O__PP___ SH381965 -18.02 103.99 -1 -17.80 105.00 1004 -18.02 103.99 TC 25 -18.04 103.98 1 TC 15 263
1965 SI WA 03:00:00 TS -18.06 103.58 1157 1157 P________PP___ SH381965 -18.06 103.58 -1 -18.06 103.58 TC 25 -18.07 103.57 1 TC 12 265
1965 SI WA 06:00:00 TS -18.10 103.00 1213 1213 O________OP___ jtwc_sh SH381965 -18.10 103.00 -1 -18.10 103.00 TC 25 -18.09 103.00 1 11 268
1965 SI WA 09:00:00 TS -18.11 102.44 1270 1270 P________PP___ SH381965 -18.11 102.43 -1 -18.11 102.43 TC 25 -18.10 102.46 1 10 270
1965 SI WA 11:00:00 TS -18.10 102.08 1285 1285 P________PO___ SH381965 -18.10 102.07 -1 -18.10 102.07 TC 25 -18.10 102.10 1 10 271
1965 SI WA 12:00:00 TS -18.10 101.91 1293 1293 O________OP___ jtwc_sh SH381965 -18.10 101.90 -1 -18.10 101.90 TC 25 -18.11 101.94 1 10 269
1965 SI WA 15:00:00 TS -18.11 101.42 1314 1314 P________PP___ SH381965 -18.11 101.40 -1 -18.11 101.40 TC 25 -18.11 101.46 1 9 270
1965 SI WA 18:00:00 TS -18.10 100.92 1338 1338 O________OP___ jtwc_sh SH381965 -18.10 100.90 -1 -18.10 100.90 TC 25 -18.10 100.97 1 10 272
1965 SI WA 21:00:00 TS -18.07 100.41 1363 1363 P________PP___ SH381965 -18.07 100.40 -1 -18.07 100.40 TC 25 -18.05 100.43 1 10 275
1965 SI WA 23:00:00 TS -18.02 100.02 1374 1374 P________PO___ SH381965 -18.03 100.02 -1 -18.03 100.02 TC 25 -18.00 100.00 7 12 277
1965 SI WA 1965-04-02 00:00:00 TS -17.99 99.79 1384 1384 O________OP___ jtwc_sh SH381965 -18.00 99.80 -1 -18.00 99.80 TC 25 -17.97 99.76 7 15 279
1965 SI WA 03:00:00 TS -17.87 99.00 1413 1408 P________PP___ SH381965 -17.88 99.01 -1 -17.88 99.01 TC 25 -17.85 98.97 7 16 280
1965 SI WA 06:00:00 TS -17.69 98.10 1443 1443 O________OP___ jtwc_sh SH381965 -17.70 98.10 -1 -17.70 98.10 TC 25 -17.68 98.09 7 18 283
1965 SI WA 09:00:00 TS -17.48 97.17 1479 1477 P________PP___ SH381965 -17.48 97.18 -1 -17.48 97.18 TC 25 -17.47 97.15 7 19 285
1965 SI WA 11:00:00 TS -17.30 96.53 1508 1508 P________PO___ SH381965 -17.30 96.53 -1 -17.30 96.53 TC 25 -17.30 96.50 7 20 286
1965 SI WA 12:00:00 TS -17.20 96.19 1520 1520 O________OP___ jtwc_sh SH381965 -17.20 96.20 -1 -17.20 96.20 TC 25 -17.19 96.16 7 21 289
1965 SI WA 15:00:00 TS -16.85 95.13 1568 1568 P________PP___ SH381965 -16.85 95.14 -1 -16.85 95.14 TC 25 -16.83 95.11 7 21 289
1965 SI WA 18:00:00 TS -16.49 94.09 1624 1624 O________OP___ jtwc_sh SH381965 -16.50 94.10 -1 -16.50 94.10 TC 25 -16.46 94.05 7 20 289
1965 SI WA 21:00:00 TS -16.18 93.12 1686 1686 P________PP___ SH381965 -16.20 93.13 -1 -16.20 93.13 TC 25 -16.15 93.08 7 19 287
1965 SI WA 23:00:00 TS -16.04 92.54 1717 1717 P________PO___ SH381965 -16.05 92.56 -1 -16.05 92.56 TC 25 -16.00 92.50 7 16 284
1965 SI WA 1965-04-03 00:00:00 TS -15.99 92.29 1732 1732 O________OP___ jtwc_sh SH381965 -16.00 92.30 -1 -16.00 92.30 TC 25 -15.96 92.25 7 13 277
1965 SI WA 03:00:00 TS -15.93 91.63 1773 1773 P________PP___ SH381965 -15.94 91.64 -1 -15.94 91.64 TC 25 -15.91 91.61 7 12 270
1965 SI WA 06:00:00 TS -15.99 91.09 1815 1815 O________OP___ jtwc_sh SH381965 -16.00 91.10 -1 -16.00 91.10 TC 25 -15.97 91.07 7 10 260
1965 SI WA 09:00:00 TS -16.12 90.58 1851 1851 P________PP___ SH381965 -16.13 90.58 -1 -16.13 90.58 TC 25 -16.09 90.60 7 10 253
1965 SI WA 11:00:00 TS -16.23 90.27 1877 1877 P________PO___ SH381965 -16.24 90.26 -1 -16.24 90.26 TC 25 -16.20 90.30 7 10 249
1965 SI WA 12:00:00 TS -16.29 90.12 1898 1898 O________OP___ jtwc_sh SH381965 -16.30 90.10 -1 -16.30 90.10 TC 25 -16.26 90.15 7 9 249
1965 SI MM 15:00:00 TS -16.45 89.67 1940 1940 P________PP___ SH381965 -16.46 89.65 -1 -16.46 89.65 TC 25 -16.45 89.70 7 9 248
1965 SI MM 18:00:00 TS -16.62 89.23 1978 1978 O________OP___ jtwc_sh SH381965 -16.60 89.20 -1 -16.60 89.20 TC 25 -16.65 89.25 7 9 244
1965 SI MM 21:00:00 NR -16.86 88.80 2029 2029 __________P___ SH381965 -1 TC -16.86 88.80 7 10 242
1965 SI MM 23:00:00 NR -17.00 88.50 2057 __________O___ SH381965 -1 TC -17.00 88.50 1 10 244